sensor_id;sensor_type;location;lat;lon;timestamp;temperature;humidity
63219;DHT22;49320;52.512;13.448;2024-02-21T00:00:36;12.00;76.30
63219;DHT22;49320;52.512;13.448;2024-02-21T00:03:04;12.10;76.30
63219;DHT22;49320;52.512;13.448;2024-02-21T00:05:31;12.10;75.70
63219;DHT22;49320;52.512;13.448;2024-02-21T00:07:59;12.00;76.30
63219;DHT22;49320;52.512;13.448;2024-02-21T00:10:26;10.00;74.40
63219;DHT22;49320;52.512;13.448;2024-02-21T00:12:53;12.10;76.20
63219;DHT22;49320;52.512;13.448;2024-02-21T00:15:20;12.10;76.20
63219;DHT22;49320;52.512;13.448;2024-02-21T00:17:47;12.10;76.30
63219;DHT22;49320;52.512;13.448;2024-02-21T00:20:15;12.20;76.30
63219;DHT22;49320;52.512;13.448;2024-02-21T00:22:42;12.20;76.70
63219;DHT22;49320;52.512;13.448;2024-02-21T00:27:36;11.90;76.60
63219;DHT22;49320;52.512;13.448;2024-02-21T00:30:03;12.10;75.40
63219;DHT22;49320;52.512;13.448;2024-02-21T00:32:32;12.10;76.10
63219;DHT22;49320;52.512;13.448;2024-02-21T00:35:01;12.10;75.50
63219;DHT22;49320;52.512;13.448;2024-02-21T00:37:28;12.10;75.50
63219;DHT22;49320;52.512;13.448;2024-02-21T00:39:55;12.10;76.20
63219;DHT22;49320;52.512;13.448;2024-02-21T00:42:21;12.10;75.60
63219;DHT22;49320;52.512;13.448;2024-02-21T00:44:48;11.90;76.10
63219;DHT22;49320;52.512;13.448;2024-02-21T00:47:15;12.00;76.20
63219;DHT22;49320;52.512;13.448;2024-02-21T00:49:42;12.00;76.10
63219;DHT22;49320;52.512;13.448;2024-02-21T00:52:09;12.00;75.50
63219;DHT22;49320;52.512;13.448;2024-02-21T00:54:36;12.00;76.00
63219;DHT22;49320;52.512;13.448;2024-02-21T00:57:16;12.00;75.50
63219;DHT22;49320;52.512;13.448;2024-02-21T00:59:43;12.00;75.50
63219;DHT22;49320;52.512;13.448;2024-02-21T01:02:09;12.00;76.10
63219;DHT22;49320;52.512;13.448;2024-02-21T01:04:36;12.00;76.00
63219;DHT22;49320;52.512;13.448;2024-02-21T01:07:03;12.00;75.40
63219;DHT22;49320;52.512;13.448;2024-02-21T01:09:30;12.00;75.30
63219;DHT22;49320;52.512;13.448;2024-02-21T01:11:57;12.00;75.90
63219;DHT22;49320;52.512;13.448;2024-02-21T01:14:24;12.00;75.90
63219;DHT22;49320;52.512;13.448;2024-02-21T01:16:50;12.00;75.20
63219;DHT22;49320;52.512;13.448;2024-02-21T01:21:45;12.00;75.10
63219;DHT22;49320;52.512;13.448;2024-02-21T01:24:11;12.00;75.10
63219;DHT22;49320;52.512;13.448;2024-02-21T01:29:05;12.00;76.30
63219;DHT22;49320;52.512;13.448;2024-02-21T01:31:32;11.90;75.00
63219;DHT22;49320;52.512;13.448;2024-02-21T01:33:59;12.00;75.80
63219;DHT22;49320;52.512;13.448;2024-02-21T01:36:27;11.80;76.00
63219;DHT22;49320;52.512;13.448;2024-02-21T01:38:54;12.00;75.10
63219;DHT22;49320;52.512;13.448;2024-02-21T01:41:21;12.00;75.70
63219;DHT22;49320;52.512;13.448;2024-02-21T01:43:47;12.00;76.70
63219;DHT22;49320;52.512;13.448;2024-02-21T01:46:14;11.90;74.90
63219;DHT22;49320;52.512;13.448;2024-02-21T01:48:41;12.00;75.70
63219;DHT22;49320;52.512;13.448;2024-02-21T01:51:09;12.00;75.70
63219;DHT22;49320;52.512;13.448;2024-02-21T01:53:38;12.00;74.90
63219;DHT22;49320;52.512;13.448;2024-02-21T01:56:09;12.00;75.70
63219;DHT22;49320;52.512;13.448;2024-02-21T01:58:37;11.80;75.70
63219;DHT22;49320;52.512;13.448;2024-02-21T02:01:06;12.00;74.90
63219;DHT22;49320;52.512;13.448;2024-02-21T02:03:34;12.00;75.60
63219;DHT22;49320;52.512;13.448;2024-02-21T02:06:01;12.00;74.90
63219;DHT22;49320;52.512;13.448;2024-02-21T02:08:29;12.00;75.50
63219;DHT22;49320;52.512;13.448;2024-02-21T02:10:55;12.00;75.60
63219;DHT22;49320;52.512;13.448;2024-02-21T02:13:22;11.90;75.90
63219;DHT22;49320;52.512;13.448;2024-02-21T02:15:50;12.00;76.30
63219;DHT22;49320;52.512;13.448;2024-02-21T02:18:17;12.00;75.60
63219;DHT22;49320;52.512;13.448;2024-02-21T02:20:46;12.00;74.90
63219;DHT22;49320;52.512;13.448;2024-02-21T02:23:26;12.00;75.60
63219;DHT22;49320;52.512;13.448;2024-02-21T02:25:54;11.90;76.10
63219;DHT22;49320;52.512;13.448;2024-02-21T02:28:21;12.10;75.30
63219;DHT22;49320;52.512;13.448;2024-02-21T02:30:49;12.10;77.70
63219;DHT22;49320;52.512;13.448;2024-02-21T02:33:16;12.10;76.30
63219;DHT22;49320;52.512;13.448;2024-02-21T02:35:46;12.00;75.60
63219;DHT22;49320;52.512;13.448;2024-02-21T02:38:13;12.00;76.00
63219;DHT22;49320;52.512;13.448;2024-02-21T02:40:41;12.00;75.70
63219;DHT22;49320;52.512;13.448;2024-02-21T02:43:08;12.00;76.20
63219;DHT22;49320;52.512;13.448;2024-02-21T02:45:35;11.90;76.30
63219;DHT22;49320;52.512;13.448;2024-02-21T02:48:02;11.90;76.30
63219;DHT22;49320;52.512;13.448;2024-02-21T02:50:30;11.90;76.60
63219;DHT22;49320;52.512;13.448;2024-02-21T02:52:57;11.90;76.90
63219;DHT22;49320;52.512;13.448;2024-02-21T02:55:24;11.90;77.10
63219;DHT22;49320;52.512;13.448;2024-02-21T02:57:53;11.90;77.30
63219;DHT22;49320;52.512;13.448;2024-02-21T03:00:20;11.90;78.30
63219;DHT22;49320;52.512;13.448;2024-02-21T03:02:49;11.80;77.70
63219;DHT22;49320;52.512;13.448;2024-02-21T03:05:20;11.80;78.00
63219;DHT22;49320;52.512;13.448;2024-02-21T03:07:48;11.80;78.30
63219;DHT22;49320;52.512;13.448;2024-02-21T03:10:16;11.80;78.10
63219;DHT22;49320;52.512;13.448;2024-02-21T03:12:44;11.80;78.20
63219;DHT22;49320;52.512;13.448;2024-02-21T03:15:12;11.70;78.40
63219;DHT22;49320;52.512;13.448;2024-02-21T03:17:40;11.70;78.60
63219;DHT22;49320;52.512;13.448;2024-02-21T03:20:08;11.70;78.90
63219;DHT22;49320;52.512;13.448;2024-02-21T03:22:37;11.70;79.10
63219;DHT22;49320;52.512;13.448;2024-02-21T03:25:05;11.70;79.80
63219;DHT22;49320;52.512;13.448;2024-02-21T03:27:33;11.60;80.10
63219;DHT22;49320;52.512;13.448;2024-02-21T03:30:00;11.60;79.90
63219;DHT22;49320;52.512;13.448;2024-02-21T03:32:27;11.60;80.20
63219;DHT22;49320;52.512;13.448;2024-02-21T03:34:55;11.60;80.60
63219;DHT22;49320;52.512;13.448;2024-02-21T03:37:22;12.80;81.00
63219;DHT22;49320;52.512;13.448;2024-02-21T03:39:49;11.60;80.80
63219;DHT22;49320;52.512;13.448;2024-02-21T03:42:16;11.60;81.20
63219;DHT22;49320;52.512;13.448;2024-02-21T03:44:43;11.50;80.30
63219;DHT22;49320;52.512;13.448;2024-02-21T03:47:10;11.50;81.10
63219;DHT22;49320;52.512;13.448;2024-02-21T03:49:38;11.50;81.40
63219;DHT22;49320;52.512;13.448;2024-02-21T03:52:06;11.50;81.80
63219;DHT22;49320;52.512;13.448;2024-02-21T03:54:32;11.50;82.10
63219;DHT22;49320;52.512;13.448;2024-02-21T03:56:59;11.50;82.00
63219;DHT22;49320;52.512;13.448;2024-02-21T03:59:26;11.40;82.30
63219;DHT22;49320;52.512;13.448;2024-02-21T04:01:53;11.40;82.50
63219;DHT22;49320;52.512;13.448;2024-02-21T04:04:20;11.40;82.60
63219;DHT22;49320;52.512;13.448;2024-02-21T04:06:48;11.30;82.70
63219;DHT22;49320;52.512;13.448;2024-02-21T04:09:16;11.40;83.10
63219;DHT22;49320;52.512;13.448;2024-02-21T04:11:44;11.30;84.00
63219;DHT22;49320;52.512;13.448;2024-02-21T04:14:11;11.40;84.10
63219;DHT22;49320;52.512;13.448;2024-02-21T04:16:38;11.40;83.30
63219;DHT22;49320;52.512;13.448;2024-02-21T04:19:06;11.40;83.30
63219;DHT22;49320;52.512;13.448;2024-02-21T04:21:34;11.30;84.10
63219;DHT22;49320;52.512;13.448;2024-02-21T04:24:01;11.40;83.70
63219;DHT22;49320;52.512;13.448;2024-02-21T04:26:30;11.30;83.40
63219;DHT22;49320;52.512;13.448;2024-02-21T04:28:57;11.30;84.30
63219;DHT22;49320;52.512;13.448;2024-02-21T04:31:24;11.30;83.80
63219;DHT22;49320;52.512;13.448;2024-02-21T04:33:51;11.30;83.80
63219;DHT22;49320;52.512;13.448;2024-02-21T04:36:18;11.30;84.20
63219;DHT22;49320;52.512;13.448;2024-02-21T04:38:45;11.30;84.50
63219;DHT22;49320;52.512;13.448;2024-02-21T04:41:12;11.30;85.30
63219;DHT22;49320;52.512;13.448;2024-02-21T04:43:39;11.30;85.10
63219;DHT22;49320;52.512;13.448;2024-02-21T04:46:06;11.20;85.50
63219;DHT22;49320;52.512;13.448;2024-02-21T04:48:32;11.20;84.70
63219;DHT22;49320;52.512;13.448;2024-02-21T04:51:00;11.20;84.50
63219;DHT22;49320;52.512;13.448;2024-02-21T04:53:27;11.30;84.90
63219;DHT22;49320;52.512;13.448;2024-02-21T04:55:54;11.30;85.20
63219;DHT22;49320;52.512;13.448;2024-02-21T04:58:21;11.30;85.30
63219;DHT22;49320;52.512;13.448;2024-02-21T05:00:48;11.30;85.90
63219;DHT22;49320;52.512;13.448;2024-02-21T05:03:15;11.30;85.10
63219;DHT22;49320;52.512;13.448;2024-02-21T05:05:42;11.30;85.20
63219;DHT22;49320;52.512;13.448;2024-02-21T05:08:09;11.20;86.80
63219;DHT22;49320;52.512;13.448;2024-02-21T05:10:37;11.30;85.50
63219;DHT22;49320;52.512;13.448;2024-02-21T05:13:03;11.30;85.20
63219;DHT22;49320;52.512;13.448;2024-02-21T05:15:31;11.30;85.40
63219;DHT22;49320;52.512;13.448;2024-02-21T05:17:58;11.40;86.10
63219;DHT22;49320;52.512;13.448;2024-02-21T05:20:25;11.20;85.30
63219;DHT22;49320;52.512;13.448;2024-02-21T05:22:52;11.20;85.20
63219;DHT22;49320;52.512;13.448;2024-02-21T05:25:19;11.30;85.60
63219;DHT22;49320;52.512;13.448;2024-02-21T05:27:46;11.30;86.00
63219;DHT22;49320;52.512;13.448;2024-02-21T05:30:13;11.20;86.20
63219;DHT22;49320;52.512;13.448;2024-02-21T05:32:39;11.30;85.50
63219;DHT22;49320;52.512;13.448;2024-02-21T05:35:07;11.30;86.00
63219;DHT22;49320;52.512;13.448;2024-02-21T05:37:34;11.30;85.70
63219;DHT22;49320;52.512;13.448;2024-02-21T05:40:01;11.30;85.80
63219;DHT22;49320;52.512;13.448;2024-02-21T05:42:27;11.30;86.50
63219;DHT22;49320;52.512;13.448;2024-02-21T05:44:54;11.30;86.70
63219;DHT22;49320;52.512;13.448;2024-02-21T05:47:21;11.30;85.90
63219;DHT22;49320;52.512;13.448;2024-02-21T05:49:48;11.30;85.90
63219;DHT22;49320;52.512;13.448;2024-02-21T05:52:15;11.30;86.00
63219;DHT22;49320;52.512;13.448;2024-02-21T05:54:42;11.30;86.00
63219;DHT22;49320;52.512;13.448;2024-02-21T05:57:12;11.30;86.00
63219;DHT22;49320;52.512;13.448;2024-02-21T05:59:39;11.30;86.00
63219;DHT22;49320;52.512;13.448;2024-02-21T06:02:06;11.40;85.90
63219;DHT22;49320;52.512;13.448;2024-02-21T06:04:34;11.40;85.90
63219;DHT22;49320;52.512;13.448;2024-02-21T06:07:01;11.40;86.00
63219;DHT22;49320;52.512;13.448;2024-02-21T06:09:28;11.40;86.00
63219;DHT22;49320;52.512;13.448;2024-02-21T06:11:55;11.40;86.00
63219;DHT22;49320;52.512;13.448;2024-02-21T06:14:22;11.40;86.00
63219;DHT22;49320;52.512;13.448;2024-02-21T06:16:49;11.40;86.20
63219;DHT22;49320;52.512;13.448;2024-02-21T06:19:16;11.40;85.90
63219;DHT22;49320;52.512;13.448;2024-02-21T06:21:43;11.40;85.90
63219;DHT22;49320;52.512;13.448;2024-02-21T06:24:10;11.40;85.90
63219;DHT22;49320;52.512;13.448;2024-02-21T06:26:40;11.30;85.90
63219;DHT22;49320;52.512;13.448;2024-02-21T06:29:07;11.10;86.90
63219;DHT22;49320;52.512;13.448;2024-02-21T06:31:35;11.40;86.20
63219;DHT22;49320;52.512;13.448;2024-02-21T06:34:02;11.40;86.20
63219;DHT22;49320;52.512;13.448;2024-02-21T06:36:29;11.40;86.20
63219;DHT22;49320;52.512;13.448;2024-02-21T06:38:56;11.40;86.10
63219;DHT22;49320;52.512;13.448;2024-02-21T06:41:23;11.40;85.80
63219;DHT22;49320;52.512;13.448;2024-02-21T06:43:50;11.40;85.80
63219;DHT22;49320;52.512;13.448;2024-02-21T06:48:52;11.30;86.60
63219;DHT22;49320;52.512;13.448;2024-02-21T06:51:19;11.40;86.10
63219;DHT22;49320;52.512;13.448;2024-02-21T06:53:46;11.40;86.20
63219;DHT22;49320;52.512;13.448;2024-02-21T06:56:13;11.30;87.30
63219;DHT22;49320;52.512;13.448;2024-02-21T06:58:40;11.40;86.60
63219;DHT22;49320;52.512;13.448;2024-02-21T07:01:07;11.40;86.60
63219;DHT22;49320;52.512;13.448;2024-02-21T07:03:36;11.40;86.70
63219;DHT22;49320;52.512;13.448;2024-02-21T07:06:03;11.50;86.70
63219;DHT22;49320;52.512;13.448;2024-02-21T07:08:30;11.50;86.40
63219;DHT22;49320;52.512;13.448;2024-02-21T07:10:57;11.50;86.50
63219;DHT22;49320;52.512;13.448;2024-02-21T07:13:24;11.60;86.40
63219;DHT22;49320;52.512;13.448;2024-02-21T07:15:51;11.60;86.30
63219;DHT22;49320;52.512;13.448;2024-02-21T07:20:45;11.60;86.10
63219;DHT22;49320;52.512;13.448;2024-02-21T07:23:12;11.60;86.10
63219;DHT22;49320;52.512;13.448;2024-02-21T07:25:39;11.60;85.70
63219;DHT22;49320;52.512;13.448;2024-02-21T07:28:06;11.70;86.00
63219;DHT22;49320;52.512;13.448;2024-02-21T07:30:33;11.60;85.90
63219;DHT22;49320;52.512;13.448;2024-02-21T07:33:00;11.60;85.90
63219;DHT22;49320;52.512;13.448;2024-02-21T07:35:27;11.70;85.80
63219;DHT22;49320;52.512;13.448;2024-02-21T07:37:54;11.70;86.00
63219;DHT22;49320;52.512;13.448;2024-02-21T07:40:21;11.80;87.20
63219;DHT22;49320;52.512;13.448;2024-02-21T07:42:48;11.80;85.80
63219;DHT22;49320;52.512;13.448;2024-02-21T07:45:17;11.70;86.60
63219;DHT22;49320;52.512;13.448;2024-02-21T07:47:50;11.70;85.80
63219;DHT22;49320;52.512;13.448;2024-02-21T07:50:17;11.80;85.60
63219;DHT22;49320;52.512;13.448;2024-02-21T07:52:44;11.80;85.80
63219;DHT22;49320;52.512;13.448;2024-02-21T07:55:11;9.90;84.40
63219;DHT22;49320;52.512;13.448;2024-02-21T07:57:38;11.90;85.70
63219;DHT22;49320;52.512;13.448;2024-02-21T08:00:05;11.90;85.80
63219;DHT22;49320;52.512;13.448;2024-02-21T08:02:36;11.90;85.80
63219;DHT22;49320;52.512;13.448;2024-02-21T08:05:03;11.90;85.20
63219;DHT22;49320;52.512;13.448;2024-02-21T08:07:30;11.90;85.60
63219;DHT22;49320;52.512;13.448;2024-02-21T08:09:58;11.90;85.20
63219;DHT22;49320;52.512;13.448;2024-02-21T08:12:25;12.00;85.90
63219;DHT22;49320;52.512;13.448;2024-02-21T08:14:51;12.00;84.40
63219;DHT22;49320;52.512;13.448;2024-02-21T08:17:18;12.10;84.90
63219;DHT22;49320;52.512;13.448;2024-02-21T08:19:45;12.10;84.80
63219;DHT22;49320;52.512;13.448;2024-02-21T08:22:12;12.30;85.30
63219;DHT22;49320;52.512;13.448;2024-02-21T08:24:39;12.10;84.50
63219;DHT22;49320;52.512;13.448;2024-02-21T08:27:05;12.10;84.80
63219;DHT22;49320;52.512;13.448;2024-02-21T08:29:32;12.10;84.30
63219;DHT22;49320;52.512;13.448;2024-02-21T08:31:59;12.20;84.40
63219;DHT22;49320;52.512;13.448;2024-02-21T08:34:26;12.20;84.20
63219;DHT22;49320;52.512;13.448;2024-02-21T08:36:55;12.20;84.20
63219;DHT22;49320;52.512;13.448;2024-02-21T08:39:22;12.20;84.00
63219;DHT22;49320;52.512;13.448;2024-02-21T08:41:49;12.20;84.00
63219;DHT22;49320;52.512;13.448;2024-02-21T08:44:23;12.20;84.00
63219;DHT22;49320;52.512;13.448;2024-02-21T08:46:54;12.30;84.20
63219;DHT22;49320;52.512;13.448;2024-02-21T08:49:21;12.30;84.10
63219;DHT22;49320;52.512;13.448;2024-02-21T08:51:48;12.30;83.90
63219;DHT22;49320;52.512;13.448;2024-02-21T08:54:15;12.40;83.10
63219;DHT22;49320;52.512;13.448;2024-02-21T08:56:43;12.50;83.50
63219;DHT22;49320;52.512;13.448;2024-02-21T08:59:10;12.50;83.30
63219;DHT22;49320;52.512;13.448;2024-02-21T09:01:37;12.50;83.10
63219;DHT22;49320;52.512;13.448;2024-02-21T09:04:04;12.50;83.00
63219;DHT22;49320;52.512;13.448;2024-02-21T09:06:32;12.60;83.00
63219;DHT22;49320;52.512;13.448;2024-02-21T09:09:00;12.60;83.00
63219;DHT22;49320;52.512;13.448;2024-02-21T09:11:27;12.70;83.00
63219;DHT22;49320;52.512;13.448;2024-02-21T09:13:55;12.70;82.80
63219;DHT22;49320;52.512;13.448;2024-02-21T09:16:23;12.80;82.60
63219;DHT22;49320;52.512;13.448;2024-02-21T09:18:50;12.80;82.30
63219;DHT22;49320;52.512;13.448;2024-02-21T09:21:17;12.90;81.40
63219;DHT22;49320;52.512;13.448;2024-02-21T09:23:45;12.90;82.10
63219;DHT22;49320;52.512;13.448;2024-02-21T09:26:12;12.90;81.80
63219;DHT22;49320;52.512;13.448;2024-02-21T09:28:43;13.70;83.00
63219;DHT22;49320;52.512;13.448;2024-02-21T09:33:40;13.10;81.00
63219;DHT22;49320;52.512;13.448;2024-02-21T09:36:08;13.10;81.50
63219;DHT22;49320;52.512;13.448;2024-02-21T09:38:35;13.20;81.30
63219;DHT22;49320;52.512;13.448;2024-02-21T09:41:15;13.20;80.80
63219;DHT22;49320;52.512;13.448;2024-02-21T09:43:51;13.30;79.30
63219;DHT22;49320;52.512;13.448;2024-02-21T09:46:26;13.30;80.40
63219;DHT22;49320;52.512;13.448;2024-02-21T09:49:35;13.40;78.70
63219;DHT22;49320;52.512;13.448;2024-02-21T09:52:06;13.40;78.90
63219;DHT22;49320;52.512;13.448;2024-02-21T09:54:34;13.40;79.30
63219;DHT22;49320;52.512;13.448;2024-02-21T09:57:05;13.50;79.30
63219;DHT22;49320;52.512;13.448;2024-02-21T09:59:33;13.50;79.10
63219;DHT22;49320;52.512;13.448;2024-02-21T10:02:00;13.50;78.90
63219;DHT22;49320;52.512;13.448;2024-02-21T10:04:29;13.60;79.00
63219;DHT22;49320;52.512;13.448;2024-02-21T10:06:56;13.60;79.00
63219;DHT22;49320;52.512;13.448;2024-02-21T10:09:27;13.60;79.10
63219;DHT22;49320;52.512;13.448;2024-02-21T10:12:06;13.70;78.70
63219;DHT22;49320;52.512;13.448;2024-02-21T10:14:38;14.00;78.90
63219;DHT22;49320;52.512;13.448;2024-02-21T10:17:05;13.90;78.50
63219;DHT22;49320;52.512;13.448;2024-02-21T10:19:37;13.90;76.50
63219;DHT22;49320;52.512;13.448;2024-02-21T10:22:07;14.00;76.50
63219;DHT22;49320;52.512;13.448;2024-02-21T10:24:35;13.70;77.70
63219;DHT22;49320;52.512;13.448;2024-02-21T10:27:09;14.30;77.80
63219;DHT22;49320;52.512;13.448;2024-02-21T10:29:40;14.10;76.90
63219;DHT22;49320;52.512;13.448;2024-02-21T10:32:10;14.10;76.90
63219;DHT22;49320;52.512;13.448;2024-02-21T10:34:40;14.10;75.30
63219;DHT22;49320;52.512;13.448;2024-02-21T10:37:10;14.10;76.50
63219;DHT22;49320;52.512;13.448;2024-02-21T10:39:42;14.20;77.10
63219;DHT22;49320;52.512;13.448;2024-02-21T10:42:11;14.20;76.70
63219;DHT22;49320;52.512;13.448;2024-02-21T10:44:40;14.10;75.70
63219;DHT22;49320;52.512;13.448;2024-02-21T10:47:09;14.20;75.70
63219;DHT22;49320;52.512;13.448;2024-02-21T10:49:40;14.20;74.00
63219;DHT22;49320;52.512;13.448;2024-02-21T10:52:25;14.20;74.40
63219;DHT22;49320;52.512;13.448;2024-02-21T10:55:20;14.30;75.70
63219;DHT22;49320;52.512;13.448;2024-02-21T10:57:51;14.30;75.20
63219;DHT22;49320;52.512;13.448;2024-02-21T11:00:19;14.30;74.90
63219;DHT22;49320;52.512;13.448;2024-02-21T11:02:48;14.30;74.50
63219;DHT22;49320;52.512;13.448;2024-02-21T11:05:16;14.30;74.60
63219;DHT22;49320;52.512;13.448;2024-02-21T11:07:44;14.30;74.60
63219;DHT22;49320;52.512;13.448;2024-02-21T11:10:24;14.30;75.30
63219;DHT22;49320;52.512;13.448;2024-02-21T11:13:08;14.30;74.20
63219;DHT22;49320;52.512;13.448;2024-02-21T11:15:35;14.30;74.30
63219;DHT22;49320;52.512;13.448;2024-02-21T11:18:02;14.40;75.20
63219;DHT22;49320;52.512;13.448;2024-02-21T11:20:34;14.30;73.60
63219;DHT22;49320;52.512;13.448;2024-02-21T11:23:04;14.20;74.60
63219;DHT22;49320;52.512;13.448;2024-02-21T11:25:31;14.30;75.00
63219;DHT22;49320;52.512;13.448;2024-02-21T11:28:04;14.30;74.00
63219;DHT22;49320;52.512;13.448;2024-02-21T11:30:32;14.30;74.90
63219;DHT22;49320;52.512;13.448;2024-02-21T11:33:03;14.30;74.90
63219;DHT22;49320;52.512;13.448;2024-02-21T11:35:33;14.40;75.00
63219;DHT22;49320;52.512;13.448;2024-02-21T11:38:11;14.40;74.90
63219;DHT22;49320;52.512;13.448;2024-02-21T11:40:46;14.30;75.10
63219;DHT22;49320;52.512;13.448;2024-02-21T11:43:15;14.50;74.50
63219;DHT22;49320;52.512;13.448;2024-02-21T11:45:43;14.70;74.80
63219;DHT22;49320;52.512;13.448;2024-02-21T11:48:10;14.70;74.50
63219;DHT22;49320;52.512;13.448;2024-02-21T11:50:37;14.70;74.00
63219;DHT22;49320;52.512;13.448;2024-02-21T11:53:06;14.70;73.30
63219;DHT22;49320;52.512;13.448;2024-02-21T11:55:33;14.80;73.20
63219;DHT22;49320;52.512;13.448;2024-02-21T11:58:01;14.80;73.30
63219;DHT22;49320;52.512;13.448;2024-02-21T12:00:27;14.80;73.40
63219;DHT22;49320;52.512;13.448;2024-02-21T12:02:54;14.90;73.40
63219;DHT22;49320;52.512;13.448;2024-02-21T12:05:26;14.80;73.90
63219;DHT22;49320;52.512;13.448;2024-02-21T12:07:56;15.00;73.30
63219;DHT22;49320;52.512;13.448;2024-02-21T12:10:26;15.10;72.70
63219;DHT22;49320;52.512;13.448;2024-02-21T12:13:09;15.10;71.90
63219;DHT22;49320;52.512;13.448;2024-02-21T12:15:38;15.10;71.40
63219;DHT22;49320;52.512;13.448;2024-02-21T12:18:05;15.20;72.10
63219;DHT22;49320;52.512;13.448;2024-02-21T12:20:32;15.20;71.80
63219;DHT22;49320;52.512;13.448;2024-02-21T12:23:02;15.20;71.20
63219;DHT22;49320;52.512;13.448;2024-02-21T12:25:31;15.20;71.80
63219;DHT22;49320;52.512;13.448;2024-02-21T12:27:59;15.30;69.60
63219;DHT22;49320;52.512;13.448;2024-02-21T12:30:27;15.30;71.50
63219;DHT22;49320;52.512;13.448;2024-02-21T12:32:54;15.40;71.40
63219;DHT22;49320;52.512;13.448;2024-02-21T12:35:21;15.50;70.40
63219;DHT22;49320;52.512;13.448;2024-02-21T12:37:47;15.50;70.40
63219;DHT22;49320;52.512;13.448;2024-02-21T12:40:14;15.50;70.30
63219;DHT22;49320;52.512;13.448;2024-02-21T12:42:42;15.50;70.60
63219;DHT22;49320;52.512;13.448;2024-02-21T12:45:09;15.60;70.70
63219;DHT22;49320;52.512;13.448;2024-02-21T12:47:36;15.60;70.70
63219;DHT22;49320;52.512;13.448;2024-02-21T12:50:03;15.50;70.30
63219;DHT22;49320;52.512;13.448;2024-02-21T12:52:33;15.70;70.10
63219;DHT22;49320;52.512;13.448;2024-02-21T12:55:00;15.70;70.10
63219;DHT22;49320;52.512;13.448;2024-02-21T12:57:27;15.70;69.20
63219;DHT22;49320;52.512;13.448;2024-02-21T12:59:54;15.80;69.80
63219;DHT22;49320;52.512;13.448;2024-02-21T13:02:21;15.80;70.00
63219;DHT22;49320;52.512;13.448;2024-02-21T13:04:48;15.80;70.20
63219;DHT22;49320;52.512;13.448;2024-02-21T13:07:15;15.80;70.10
63219;DHT22;49320;52.512;13.448;2024-02-21T13:09:42;15.90;69.70
63219;DHT22;49320;52.512;13.448;2024-02-21T13:12:09;15.70;69.00
63219;DHT22;49320;52.512;13.448;2024-02-21T13:14:36;15.90;69.50
63219;DHT22;49320;52.512;13.448;2024-02-21T13:17:05;15.90;69.50
63219;DHT22;49320;52.512;13.448;2024-02-21T13:19:32;15.90;69.60
63219;DHT22;49320;52.512;13.448;2024-02-21T13:21:59;15.90;69.50
63219;DHT22;49320;52.512;13.448;2024-02-21T13:24:26;15.80;69.60
63219;DHT22;49320;52.512;13.448;2024-02-21T13:26:54;16.00;69.40
63219;DHT22;49320;52.512;13.448;2024-02-21T13:29:21;15.90;69.20
63219;DHT22;49320;52.512;13.448;2024-02-21T13:31:49;16.00;69.00
63219;DHT22;49320;52.512;13.448;2024-02-21T13:34:16;16.00;69.20
63219;DHT22;49320;52.512;13.448;2024-02-21T13:36:43;16.00;68.30
63219;DHT22;49320;52.512;13.448;2024-02-21T13:39:10;16.10;68.30
63219;DHT22;49320;52.512;13.448;2024-02-21T13:41:42;16.00;68.50
63219;DHT22;49320;52.512;13.448;2024-02-21T13:44:09;16.10;68.50
63219;DHT22;49320;52.512;13.448;2024-02-21T13:46:36;16.10;68.30
63219;DHT22;49320;52.512;13.448;2024-02-21T13:49:04;16.10;68.30
63219;DHT22;49320;52.512;13.448;2024-02-21T13:51:34;16.10;68.30
63219;DHT22;49320;52.512;13.448;2024-02-21T13:54:04;16.10;68.30
63219;DHT22;49320;52.512;13.448;2024-02-21T13:56:31;17.30;69.20
63219;DHT22;49320;52.512;13.448;2024-02-21T13:58:59;16.10;66.90
63219;DHT22;49320;52.512;13.448;2024-02-21T14:01:26;16.00;68.30
63219;DHT22;49320;52.512;13.448;2024-02-21T14:03:56;16.00;68.30
63219;DHT22;49320;52.512;13.448;2024-02-21T14:06:23;16.00;68.20
63219;DHT22;49320;52.512;13.448;2024-02-21T14:08:50;16.00;68.10
63219;DHT22;49320;52.512;13.448;2024-02-21T14:11:17;16.00;68.20
63219;DHT22;49320;52.512;13.448;2024-02-21T14:13:44;16.00;68.20
63219;DHT22;49320;52.512;13.448;2024-02-21T14:16:11;16.00;68.30
63219;DHT22;49320;52.512;13.448;2024-02-21T14:18:40;16.00;68.20
63219;DHT22;49320;52.512;13.448;2024-02-21T14:21:10;16.00;67.00
63219;DHT22;49320;52.512;13.448;2024-02-21T14:23:38;16.00;68.20
63219;DHT22;49320;52.512;13.448;2024-02-21T14:26:05;16.00;68.00
63219;DHT22;49320;52.512;13.448;2024-02-21T14:28:33;16.00;66.30
63219;DHT22;49320;52.512;13.448;2024-02-21T14:31:02;16.00;67.80
63219;DHT22;49320;52.512;13.448;2024-02-21T14:33:32;15.90;67.70
63219;DHT22;49320;52.512;13.448;2024-02-21T14:35:59;16.00;67.70
63219;DHT22;49320;52.512;13.448;2024-02-21T14:38:27;15.90;67.70
63219;DHT22;49320;52.512;13.448;2024-02-21T14:40:54;15.90;67.70
63219;DHT22;49320;52.512;13.448;2024-02-21T14:43:21;16.00;67.60
63219;DHT22;49320;52.512;13.448;2024-02-21T14:45:49;16.00;67.60
63219;DHT22;49320;52.512;13.448;2024-02-21T14:48:16;16.10;66.40
63219;DHT22;49320;52.512;13.448;2024-02-21T14:50:43;16.00;67.60
63219;DHT22;49320;52.512;13.448;2024-02-21T14:53:10;16.10;67.40
63219;DHT22;49320;52.512;13.448;2024-02-21T14:55:37;16.00;68.00
63219;DHT22;49320;52.512;13.448;2024-02-21T14:58:08;16.00;67.20
63219;DHT22;49320;52.512;13.448;2024-02-21T15:00:35;16.10;66.90
63219;DHT22;49320;52.512;13.448;2024-02-21T15:03:02;16.00;67.00
63219;DHT22;49320;52.512;13.448;2024-02-21T15:05:29;16.00;67.00
63219;DHT22;49320;52.512;13.448;2024-02-21T15:07:57;16.00;66.90
63219;DHT22;49320;52.512;13.448;2024-02-21T15:10:24;15.90;67.50
63219;DHT22;49320;52.512;13.448;2024-02-21T15:12:51;15.90;66.90
63219;DHT22;49320;52.512;13.448;2024-02-21T15:15:18;15.90;66.80
63219;DHT22;49320;52.512;13.448;2024-02-21T15:17:45;15.80;66.10
63219;DHT22;49320;52.512;13.448;2024-02-21T15:20:12;15.80;66.80
63219;DHT22;49320;52.512;13.448;2024-02-21T15:22:39;15.80;66.70
63219;DHT22;49320;52.512;13.448;2024-02-21T15:25:07;15.70;66.70
63219;DHT22;49320;52.512;13.448;2024-02-21T15:27:40;15.70;65.90
63219;DHT22;49320;52.512;13.448;2024-02-21T15:30:09;15.70;66.80
63219;DHT22;49320;52.512;13.448;2024-02-21T15:32:38;15.60;66.00
63219;DHT22;49320;52.512;13.448;2024-02-21T15:35:06;15.60;65.90